sensor_id;sensor_type;location;lat;lon;timestamp;pressure;altitude;pressure_sealevel;temperature;humidity
43814;BME280;29669;55.706;37.656;2023-04-20T00:02:18;100695.59;;;9.42;nan
43814;BME280;29669;55.706;37.656;2023-04-20T00:04:48;100684.00;;;9.37;nan
43814;BME280;29669;55.706;37.656;2023-04-20T00:07:15;100686.44;;;9.29;nan
43814;BME280;29669;55.706;37.656;2023-04-20T00:09:43;100692.16;;;9.23;nan
43814;BME280;29669;55.706;37.656;2023-04-20T00:12:11;100691.84;;;9.16;nan
43814;BME280;29669;55.706;37.656;2023-04-20T00:14:38;100692.38;;;9.10;nan
43814;BME280;29669;55.706;37.656;2023-04-20T00:17:05;100685.16;;;9.04;nan
43814;BME280;29669;55.706;37.656;2023-04-20T00:19:33;100680.22;;;9.01;nan
43814;BME280;29669;55.706;37.656;2023-04-20T00:22:00;100687.28;;;8.99;nan
43814;BME280;29669;55.706;37.656;2023-04-20T00:24:28;100680.63;;;8.97;nan
43814;BME280;29669;55.706;37.656;2023-04-20T00:26:55;100682.50;;;8.95;nan
43814;BME280;29669;55.706;37.656;2023-04-20T00:29:23;100679.78;;;8.96;nan
43814;BME280;29669;55.706;37.656;2023-04-20T00:31:51;100678.97;;;8.96;nan
43814;BME280;29669;55.706;37.656;2023-04-20T00:34:18;100679.22;;;8.93;nan
43814;BME280;29669;55.706;37.656;2023-04-20T00:36:46;100673.22;;;8.92;nan
43814;BME280;29669;55.706;37.656;2023-04-20T00:39:14;100676.69;;;9.02;nan
43814;BME280;29669;55.706;37.656;2023-04-20T00:41:42;100674.09;;;9.02;nan
43814;BME280;29669;55.706;37.656;2023-04-20T00:44:09;100665.88;;;8.97;nan
43814;BME280;29669;55.706;37.656;2023-04-20T00:46:40;100665.19;;;8.95;nan
43814;BME280;29669;55.706;37.656;2023-04-20T00:49:07;100666.28;;;8.93;nan
43814;BME280;29669;55.706;37.656;2023-04-20T00:51:35;100660.69;;;8.97;nan
43814;BME280;29669;55.706;37.656;2023-04-20T00:54:04;100659.81;;;9.08;nan
43814;BME280;29669;55.706;37.656;2023-04-20T00:56:31;100656.00;;;9.12;nan
43814;BME280;29669;55.706;37.656;2023-04-20T00:58:59;100654.22;;;9.12;nan
43814;BME280;29669;55.706;37.656;2023-04-20T01:01:27;100645.09;;;9.18;nan
43814;BME280;29669;55.706;37.656;2023-04-20T01:03:55;100646.19;;;9.15;nan
43814;BME280;29669;55.706;37.656;2023-04-20T01:06:23;100653.09;;;9.05;nan
43814;BME280;29669;55.706;37.656;2023-04-20T01:08:52;100651.81;;;8.90;nan
43814;BME280;29669;55.706;37.656;2023-04-20T01:11:20;100658.63;;;8.82;nan
43814;BME280;29669;55.706;37.656;2023-04-20T01:13:48;100648.50;;;8.79;nan
43814;BME280;29669;55.706;37.656;2023-04-20T01:16:16;100646.06;;;8.77;nan
43814;BME280;29669;55.706;37.656;2023-04-20T01:18:44;100649.88;;;8.83;nan
43814;BME280;29669;55.706;37.656;2023-04-20T01:21:13;100645.13;;;8.88;nan
43814;BME280;29669;55.706;37.656;2023-04-20T01:23:40;100647.88;;;8.96;nan
43814;BME280;29669;55.706;37.656;2023-04-20T01:26:09;100637.00;;;9.02;nan
43814;BME280;29669;55.706;37.656;2023-04-20T01:28:37;100637.84;;;9.02;nan
43814;BME280;29669;55.706;37.656;2023-04-20T01:31:05;100639.19;;;8.97;nan
43814;BME280;29669;55.706;37.656;2023-04-20T01:33:33;100643.13;;;8.91;nan
43814;BME280;29669;55.706;37.656;2023-04-20T01:36:02;100642.13;;;8.83;nan
43814;BME280;29669;55.706;37.656;2023-04-20T01:38:30;100635.28;;;8.72;nan
43814;BME280;29669;55.706;37.656;2023-04-20T01:41:01;100635.78;;;8.66;nan
43814;BME280;29669;55.706;37.656;2023-04-20T01:43:31;100626.09;;;8.59;nan
43814;BME280;29669;55.706;37.656;2023-04-20T01:45:59;100632.13;;;8.48;nan
43814;BME280;29669;55.706;37.656;2023-04-20T01:48:27;100628.19;;;8.44;nan
43814;BME280;29669;55.706;37.656;2023-04-20T01:50:54;100624.31;;;8.38;nan
43814;BME280;29669;55.706;37.656;2023-04-20T01:53:22;100622.00;;;8.35;nan
43814;BME280;29669;55.706;37.656;2023-04-20T01:55:50;100618.72;;;8.33;nan
43814;BME280;29669;55.706;37.656;2023-04-20T01:58:18;100621.69;;;8.29;nan
43814;BME280;29669;55.706;37.656;2023-04-20T02:00:46;100612.63;;;8.23;nan
43814;BME280;29669;55.706;37.656;2023-04-20T02:03:13;100618.63;;;8.24;nan
43814;BME280;29669;55.706;37.656;2023-04-20T02:05:41;100615.72;;;8.28;nan
43814;BME280;29669;55.706;37.656;2023-04-20T02:08:09;100619.28;;;8.37;nan
43814;BME280;29669;55.706;37.656;2023-04-20T02:10:38;100613.94;;;8.49;nan
43814;BME280;29669;55.706;37.656;2023-04-20T02:13:08;100613.97;;;8.59;nan
43814;BME280;29669;55.706;37.656;2023-04-20T02:15:36;100616.97;;;8.64;nan
43814;BME280;29669;55.706;37.656;2023-04-20T02:18:03;100618.59;;;8.65;nan
43814;BME280;29669;55.706;37.656;2023-04-20T02:20:31;100611.81;;;8.64;nan
43814;BME280;29669;55.706;37.656;2023-04-20T02:22:59;100623.41;;;8.70;nan
43814;BME280;29669;55.706;37.656;2023-04-20T02:25:26;100621.38;;;8.73;nan
43814;BME280;29669;55.706;37.656;2023-04-20T02:27:54;100626.31;;;8.76;nan
43814;BME280;29669;55.706;37.656;2023-04-20T02:30:22;100627.66;;;8.80;nan
43814;BME280;29669;55.706;37.656;2023-04-20T02:32:50;100622.06;;;8.75;nan
43814;BME280;29669;55.706;37.656;2023-04-20T02:35:18;100622.34;;;8.72;nan
43814;BME280;29669;55.706;37.656;2023-04-20T02:37:45;100626.00;;;8.70;nan
43814;BME280;29669;55.706;37.656;2023-04-20T02:40:13;100626.31;;;8.76;nan
43814;BME280;29669;55.706;37.656;2023-04-20T02:42:40;100630.00;;;8.83;nan
43814;BME280;29669;55.706;37.656;2023-04-20T02:45:10;100628.53;;;8.90;nan
43814;BME280;29669;55.706;37.656;2023-04-20T02:47:40;100623.06;;;8.93;nan
43814;BME280;29669;55.706;37.656;2023-04-20T02:50:10;100616.69;;;8.97;nan
43814;BME280;29669;55.706;37.656;2023-04-20T02:52:55;100620.13;;;9.07;nan
43814;BME280;29669;55.706;37.656;2023-04-20T02:55:23;100615.53;;;9.20;nan
43814;BME280;29669;55.706;37.656;2023-04-20T02:57:54;100620.97;;;9.17;nan
43814;BME280;29669;55.706;37.656;2023-04-20T03:00:35;100615.50;;;9.11;nan
43814;BME280;29669;55.706;37.656;2023-04-20T03:03:06;100612.34;;;9.07;nan
43814;BME280;29669;55.706;37.656;2023-04-20T03:05:34;100610.16;;;9.03;nan
43814;BME280;29669;55.706;37.656;2023-04-20T03:08:02;100610.84;;;9.05;nan
43814;BME280;29669;55.706;37.656;2023-04-20T03:10:31;100614.13;;;9.07;nan
43814;BME280;29669;55.706;37.656;2023-04-20T03:13:12;100603.66;;;9.08;nan
43814;BME280;29669;55.706;37.656;2023-04-20T03:15:58;100608.69;;;9.10;nan
43814;BME280;29669;55.706;37.656;2023-04-20T03:18:48;100602.97;;;9.06;nan
43814;BME280;29669;55.706;37.656;2023-04-20T03:21:16;100599.13;;;9.10;nan
43814;BME280;29669;55.706;37.656;2023-04-20T03:23:44;100604.06;;;9.13;nan
43814;BME280;29669;55.706;37.656;2023-04-20T03:26:11;100603.22;;;9.13;nan
43814;BME280;29669;55.706;37.656;2023-04-20T03:29:08;100596.97;;;9.15;nan
43814;BME280;29669;55.706;37.656;2023-04-20T03:31:36;100591.53;;;9.18;nan
43814;BME280;29669;55.706;37.656;2023-04-20T03:34:04;100591.97;;;9.23;nan
43814;BME280;29669;55.706;37.656;2023-04-20T03:36:31;100600.41;;;9.35;nan
43814;BME280;29669;55.706;37.656;2023-04-20T03:39:00;100599.72;;;9.42;nan
43814;BME280;29669;55.706;37.656;2023-04-20T03:41:27;100598.50;;;9.46;nan
43814;BME280;29669;55.706;37.656;2023-04-20T03:43:55;100598.25;;;9.49;nan
43814;BME280;29669;55.706;37.656;2023-04-20T03:46:23;100595.91;;;9.56;nan
43814;BME280;29669;55.706;37.656;2023-04-20T03:48:51;100596.34;;;9.61;nan
43814;BME280;29669;55.706;37.656;2023-04-20T03:51:19;100592.38;;;9.67;nan
43814;BME280;29669;55.706;37.656;2023-04-20T03:53:46;100597.03;;;9.73;nan
43814;BME280;29669;55.706;37.656;2023-04-20T03:56:14;100599.19;;;9.77;nan
43814;BME280;29669;55.706;37.656;2023-04-20T03:58:42;100597.81;;;9.83;nan
43814;BME280;29669;55.706;37.656;2023-04-20T04:01:17;100596.44;;;9.88;nan
43814;BME280;29669;55.706;37.656;2023-04-20T04:03:47;100595.91;;;9.94;nan
43814;BME280;29669;55.706;37.656;2023-04-20T04:06:16;100587.72;;;9.99;nan
43814;BME280;29669;55.706;37.656;2023-04-20T04:08:44;100589.09;;;10.03;nan
43814;BME280;29669;55.706;37.656;2023-04-20T04:11:12;100591.38;;;10.06;nan
43814;BME280;29669;55.706;37.656;2023-04-20T04:13:39;100583.91;;;10.12;nan
43814;BME280;29669;55.706;37.656;2023-04-20T04:16:08;100584.16;;;10.19;nan
43814;BME280;29669;55.706;37.656;2023-04-20T04:18:36;100588.09;;;10.23;nan
43814;BME280;29669;55.706;37.656;2023-04-20T04:21:08;100586.72;;;10.28;nan
43814;BME280;29669;55.706;37.656;2023-04-20T04:23:39;100581.13;;;10.33;nan
43814;BME280;29669;55.706;37.656;2023-04-20T04:26:17;100582.34;;;10.38;nan
43814;BME280;29669;55.706;37.656;2023-04-20T04:28:47;100575.59;;;10.46;nan
43814;BME280;29669;55.706;37.656;2023-04-20T04:31:17;100582.69;;;10.53;nan
43814;BME280;29669;55.706;37.656;2023-04-20T04:33:48;100578.53;;;10.60;nan
43814;BME280;29669;55.706;37.656;2023-04-20T04:36:27;100572.78;;;10.66;nan
43814;BME280;29669;55.706;37.656;2023-04-20T04:38:57;100571.38;;;10.72;nan
43814;BME280;29669;55.706;37.656;2023-04-20T04:41:26;100572.16;;;10.82;nan
43814;BME280;29669;55.706;37.656;2023-04-20T04:44:02;100560.38;;;10.87;nan
43814;BME280;29669;55.706;37.656;2023-04-20T04:46:30;100564.16;;;10.93;nan
43814;BME280;29669;55.706;37.656;2023-04-20T04:48:58;100563.06;;;10.95;nan
43814;BME280;29669;55.706;37.656;2023-04-20T04:51:29;100557.56;;;10.98;nan
43814;BME280;29669;55.706;37.656;2023-04-20T04:53:57;100560.53;;;11.03;nan
43814;BME280;29669;55.706;37.656;2023-04-20T04:56:25;100556.69;;;11.07;nan
43814;BME280;29669;55.706;37.656;2023-04-20T04:58:52;100565.56;;;11.14;nan
43814;BME280;29669;55.706;37.656;2023-04-20T05:01:20;100560.72;;;11.19;nan
43814;BME280;29669;55.706;37.656;2023-04-20T05:03:47;100558.50;;;11.24;nan
43814;BME280;29669;55.706;37.656;2023-04-20T05:06:15;100557.06;;;11.30;nan
43814;BME280;29669;55.706;37.656;2023-04-20T05:09:01;100558.66;;;11.41;nan
43814;BME280;29669;55.706;37.656;2023-04-20T05:11:29;100558.75;;;11.49;nan
43814;BME280;29669;55.706;37.656;2023-04-20T05:13:58;100549.38;;;11.56;nan
43814;BME280;29669;55.706;37.656;2023-04-20T05:16:27;100552.31;;;11.61;nan
43814;BME280;29669;55.706;37.656;2023-04-20T05:18:54;100550.13;;;11.66;nan
43814;BME280;29669;55.706;37.656;2023-04-20T05:21:21;100545.66;;;11.76;nan
43814;BME280;29669;55.706;37.656;2023-04-20T05:23:49;100550.09;;;11.83;nan
43814;BME280;29669;55.706;37.656;2023-04-20T05:26:17;100545.09;;;11.90;nan
43814;BME280;29669;55.706;37.656;2023-04-20T05:28:44;100544.50;;;11.96;nan
43814;BME280;29669;55.706;37.656;2023-04-20T05:31:12;100540.31;;;12.03;nan
43814;BME280;29669;55.706;37.656;2023-04-20T05:33:39;100542.00;;;12.12;nan
43814;BME280;29669;55.706;37.656;2023-04-20T05:36:07;100545.59;;;12.19;nan
43814;BME280;29669;55.706;37.656;2023-04-20T05:38:35;100543.06;;;12.27;nan
43814;BME280;29669;55.706;37.656;2023-04-20T05:41:03;100535.28;;;12.35;nan
43814;BME280;29669;55.706;37.656;2023-04-20T05:43:31;100537.13;;;12.43;nan
43814;BME280;29669;55.706;37.656;2023-04-20T05:45:58;100537.81;;;12.53;nan
43814;BME280;29669;55.706;37.656;2023-04-20T05:48:26;100537.34;;;12.57;nan
43814;BME280;29669;55.706;37.656;2023-04-20T05:50:56;100538.31;;;12.64;nan
43814;BME280;29669;55.706;37.656;2023-04-20T05:53:23;100532.84;;;12.75;nan
43814;BME280;29669;55.706;37.656;2023-04-20T05:55:51;100534.50;;;12.84;nan
43814;BME280;29669;55.706;37.656;2023-04-20T05:58:18;100537.47;;;12.97;nan
43814;BME280;29669;55.706;37.656;2023-04-20T06:00:46;100535.91;;;13.12;nan
43814;BME280;29669;55.706;37.656;2023-04-20T06:03:13;100534.94;;;13.21;nan
43814;BME280;29669;55.706;37.656;2023-04-20T06:05:41;100533.97;;;13.31;nan
43814;BME280;29669;55.706;37.656;2023-04-20T06:08:09;100529.59;;;13.39;nan
43814;BME280;29669;55.706;37.656;2023-04-20T06:10:36;100529.59;;;13.47;nan
43814;BME280;29669;55.706;37.656;2023-04-20T06:13:04;100522.91;;;13.53;nan
43814;BME280;29669;55.706;37.656;2023-04-20T06:15:31;100533.19;;;13.62;nan
43814;BME280;29669;55.706;37.656;2023-04-20T06:17:59;100533.00;;;13.72;nan
43814;BME280;29669;55.706;37.656;2023-04-20T06:20:28;100531.03;;;13.82;nan
43814;BME280;29669;55.706;37.656;2023-04-20T06:22:56;100525.47;;;13.93;nan
43814;BME280;29669;55.706;37.656;2023-04-20T06:25:23;100530.34;;;14.04;nan
43814;BME280;29669;55.706;37.656;2023-04-20T06:27:51;100527.06;;;14.10;nan
43814;BME280;29669;55.706;37.656;2023-04-20T06:30:19;100524.59;;;14.16;nan
43814;BME280;29669;55.706;37.656;2023-04-20T06:32:46;100512.50;;;14.24;nan
43814;BME280;29669;55.706;37.656;2023-04-20T06:35:13;100519.34;;;14.33;nan
43814;BME280;29669;55.706;37.656;2023-04-20T06:37:41;100525.19;;;14.43;nan
43814;BME280;29669;55.706;37.656;2023-04-20T06:40:09;100512.28;;;14.49;nan
43814;BME280;29669;55.706;37.656;2023-04-20T06:42:37;100513.06;;;14.58;nan
43814;BME280;29669;55.706;37.656;2023-04-20T06:45:04;100504.19;;;14.67;nan
43814;BME280;29669;55.706;37.656;2023-04-20T06:47:33;100514.44;;;14.76;nan
43814;BME280;29669;55.706;37.656;2023-04-20T06:50:01;100511.47;;;14.87;nan
43814;BME280;29669;55.706;37.656;2023-04-20T06:52:30;100502.41;;;14.98;nan
43814;BME280;29669;55.706;37.656;2023-04-20T06:54:58;100505.44;;;15.09;nan
43814;BME280;29669;55.706;37.656;2023-04-20T06:57:28;100495.56;;;15.20;nan
43814;BME280;29669;55.706;37.656;2023-04-20T06:59:56;100498.53;;;15.31;nan
43814;BME280;29669;55.706;37.656;2023-04-20T07:02:25;100492.44;;;15.39;nan
43814;BME280;29669;55.706;37.656;2023-04-20T07:04:52;100491.59;;;15.46;nan
43814;BME280;29669;55.706;37.656;2023-04-20T07:07:26;100486.47;;;15.53;nan
43814;BME280;29669;55.706;37.656;2023-04-20T07:09:54;100490.00;;;15.60;nan
43814;BME280;29669;55.706;37.656;2023-04-20T07:12:21;100482.09;;;15.68;nan
43814;BME280;29669;55.706;37.656;2023-04-20T07:14:48;100484.63;;;15.76;nan
43814;BME280;29669;55.706;37.656;2023-04-20T07:17:16;100479.31;;;15.84;nan
43814;BME280;29669;55.706;37.656;2023-04-20T07:19:44;100483.66;;;15.91;nan
43814;BME280;29669;55.706;37.656;2023-04-20T07:22:11;100474.91;;;15.99;nan
43814;BME280;29669;55.706;37.656;2023-04-20T07:24:38;100479.06;;;16.08;nan
43814;BME280;29669;55.706;37.656;2023-04-20T07:27:06;100480.97;;;16.14;nan
43814;BME280;29669;55.706;37.656;2023-04-20T07:29:34;100471.38;;;16.21;nan
43814;BME280;29669;55.706;37.656;2023-04-20T07:32:02;100470.47;;;16.29;nan
43814;BME280;29669;55.706;37.656;2023-04-20T07:34:29;100478.38;;;16.35;nan
43814;BME280;29669;55.706;37.656;2023-04-20T07:36:57;100474.84;;;16.43;nan
43814;BME280;29669;55.706;37.656;2023-04-20T07:39:24;100473.53;;;16.61;nan
43814;BME280;29669;55.706;37.656;2023-04-20T07:41:54;100468.75;;;16.86;nan
43814;BME280;29669;55.706;37.656;2023-04-20T07:44:23;100467.00;;;17.14;nan
43814;BME280;29669;55.706;37.656;2023-04-20T07:46:50;100466.72;;;17.51;nan
43814;BME280;29669;55.706;37.656;2023-04-20T07:49:18;100462.97;;;17.88;nan
43814;BME280;29669;55.706;37.656;2023-04-20T07:51:46;100461.50;;;18.20;nan
43814;BME280;29669;55.706;37.656;2023-04-20T07:54:15;100455.16;;;18.42;nan
43814;BME280;29669;55.706;37.656;2023-04-20T07:56:46;100454.00;;;18.57;nan
43814;BME280;29669;55.706;37.656;2023-04-20T07:59:14;100457.09;;;18.81;nan
43814;BME280;29669;55.706;37.656;2023-04-20T08:01:42;100451.88;;;19.07;nan
43814;BME280;29669;55.706;37.656;2023-04-20T08:04:09;100458.00;;;19.33;nan
43814;BME280;29669;55.706;37.656;2023-04-20T08:06:37;100443.63;;;19.62;nan
43814;BME280;29669;55.706;37.656;2023-04-20T08:09:04;100443.97;;;19.85;nan
43814;BME280;29669;55.706;37.656;2023-04-20T08:11:32;100442.91;;;19.99;nan
43814;BME280;29669;55.706;37.656;2023-04-20T08:13:59;100447.59;;;20.04;nan
43814;BME280;29669;55.706;37.656;2023-04-20T08:16:27;100448.16;;;20.12;nan
43814;BME280;29669;55.706;37.656;2023-04-20T08:18:55;100442.91;;;19.99;nan
43814;BME280;29669;55.706;37.656;2023-04-20T08:21:22;100452.91;;;19.78;nan
43814;BME280;29669;55.706;37.656;2023-04-20T08:23:51;100433.47;;;19.59;nan
43814;BME280;29669;55.706;37.656;2023-04-20T08:26:20;100436.75;;;19.41;nan
43814;BME280;29669;55.706;37.656;2023-04-20T08:28:51;100437.94;;;19.26;nan
43814;BME280;29669;55.706;37.656;2023-04-20T08:31:18;100434.28;;;19.14;nan
43814;BME280;29669;55.706;37.656;2023-04-20T08:33:46;100426.97;;;19.03;nan
43814;BME280;29669;55.706;37.656;2023-04-20T08:36:14;100428.19;;;18.94;nan
43814;BME280;29669;55.706;37.656;2023-04-20T08:38:41;100433.06;;;18.90;nan
43814;BME280;29669;55.706;37.656;2023-04-20T08:41:09;100424.91;;;18.72;nan
43814;BME280;29669;55.706;37.656;2023-04-20T08:43:39;100423.69;;;18.61;nan
43814;BME280;29669;55.706;37.656;2023-04-20T08:46:07;100423.06;;;18.59;nan
43814;BME280;29669;55.706;37.656;2023-04-20T08:48:36;100425.28;;;18.62;nan
43814;BME280;29669;55.706;37.656;2023-04-20T08:51:04;100410.75;;;18.66;nan
43814;BME280;29669;55.706;37.656;2023-04-20T08:53:31;100419.28;;;18.75;nan
43814;BME280;29669;55.706;37.656;2023-04-20T08:55:59;100418.69;;;18.86;nan
43814;BME280;29669;55.706;37.656;2023-04-20T08:58:28;100410.19;;;18.97;nan
43814;BME280;29669;55.706;37.656;2023-04-20T09:00:56;100413.63;;;19.04;nan
43814;BME280;29669;55.706;37.656;2023-04-20T09:03:33;100416.88;;;19.06;nan
43814;BME280;29669;55.706;37.656;2023-04-20T09:06:02;100415.03;;;18.94;nan
43814;BME280;29669;55.706;37.656;2023-04-20T09:08:33;100415.63;;;18.89;nan
43814;BME280;29669;55.706;37.656;2023-04-20T09:11:01;100407.94;;;18.88;nan
43814;BME280;29669;55.706;37.656;2023-04-20T09:13:29;100404.69;;;18.86;nan
43814;BME280;29669;55.706;37.656;2023-04-20T09:15:56;100408.75;;;18.88;nan
43814;BME280;29669;55.706;37.656;2023-04-20T09:18:23;100393.81;;;19.02;nan
43814;BME280;29669;55.706;37.656;2023-04-20T09:20:51;100398.22;;;19.08;nan
43814;BME280;29669;55.706;37.656;2023-04-20T09:23:19;100401.47;;;19.23;nan
43814;BME280;29669;55.706;37.656;2023-04-20T09:25:50;100395.41;;;19.48;nan
43814;BME280;29669;55.706;37.656;2023-04-20T09:28:19;100384.38;;;19.84;nan
43814;BME280;29669;55.706;37.656;2023-04-20T09:30:47;100390.75;;;20.14;nan
43814;BME280;29669;55.706;37.656;2023-04-20T09:33:15;100387.78;;;20.48;nan
43814;BME280;29669;55.706;37.656;2023-04-20T09:35:43;100385.53;;;20.83;nan
43814;BME280;29669;55.706;37.656;2023-04-20T09:38:14;100386.38;;;21.08;nan
43814;BME280;29669;55.706;37.656;2023-04-20T09:40:42;100392.31;;;21.28;nan
43814;BME280;29669;55.706;37.656;2023-04-20T09:43:10;100387.13;;;21.40;nan
43814;BME280;29669;55.706;37.656;2023-04-20T09:45:41;100377.91;;;21.24;nan
43814;BME280;29669;55.706;37.656;2023-04-20T09:48:09;100382.69;;;20.85;nan
43814;BME280;29669;55.706;37.656;2023-04-20T09:50:38;100375.72;;;20.66;nan
43814;BME280;29669;55.706;37.656;2023-04-20T09:53:15;100382.06;;;20.51;nan
43814;BME280;29669;55.706;37.656;2023-04-20T09:55:46;100381.84;;;20.22;nan
43814;BME280;29669;55.706;37.656;2023-04-20T09:58:17;100364.69;;;19.93;nan
43814;BME280;29669;55.706;37.656;2023-04-20T10:00:44;100375.50;;;19.79;nan
43814;BME280;29669;55.706;37.656;2023-04-20T10:28:51;100350.41;;;20.83;19.41
43814;BME280;29669;55.706;37.656;2023-04-20T10:31:20;100349.47;;;21.26;19.28
43814;BME280;29669;55.706;37.656;2023-04-20T10:33:53;100342.38;;;21.45;19.34
43814;BME280;29669;55.706;37.656;2023-04-20T10:36:33;100346.59;;;21.28;19.21
43814;BME280;29669;55.706;37.656;2023-04-20T10:39:23;100343.94;;;21.10;19.71
43814;BME280;29669;55.706;37.656;2023-04-20T10:42:15;100351.69;;;21.05;19.68
43814;BME280;29669;55.706;37.656;2023-04-20T10:45:19;100338.69;;;21.03;19.76
43814;BME280;29669;55.706;37.656;2023-04-20T10:48:09;100342.16;;;21.04;19.66
43814;BME280;29669;55.706;37.656;2023-04-20T10:50:52;100349.38;;;21.33;19.54
43814;BME280;29669;55.706;37.656;2023-04-20T10:53:27;100345.66;;;21.40;19.47
43814;BME280;29669;55.706;37.656;2023-04-20T10:55:58;100343.69;;;21.36;19.05
43814;BME280;29669;55.706;37.656;2023-04-20T10:58:26;100342.88;;;21.35;19.28
43814;BME280;29669;55.706;37.656;2023-04-20T11:01:03;100337.22;;;21.32;19.09
43814;BME280;29669;55.706;37.656;2023-04-20T11:03:32;100337.53;;;21.42;19.13
43814;BME280;29669;55.706;37.656;2023-04-20T11:06:03;100322.88;;;21.46;19.14
43814;BME280;29669;55.706;37.656;2023-04-20T11:08:37;100322.09;;;21.39;19.07
43814;BME280;29669;55.706;37.656;2023-04-20T11:11:15;100315.31;;;21.49;19.11
43814;BME280;29669;55.706;37.656;2023-04-20T11:13:43;100318.66;;;21.75;18.93
43814;BME280;29669;55.706;37.656;2023-04-20T11:16:12;100308.94;;;22.05;18.80
43814;BME280;29669;55.706;37.656;2023-04-20T11:18:53;100304.56;;;22.28;18.44
43814;BME280;29669;55.706;37.656;2023-04-20T11:21:21;100310.88;;;22.27;18.12
43814;BME280;29669;55.706;37.656;2023-04-20T11:23:49;100296.72;;;22.33;18.28
43814;BME280;29669;55.706;37.656;2023-04-20T11:26:17;100294.69;;;22.47;17.79
43814;BME280;29669;55.706;37.656;2023-04-20T11:28:52;100289.97;;;22.37;18.01
43814;BME280;29669;55.706;37.656;2023-04-20T11:31:22;100294.09;;;22.33;18.04
43814;BME280;29669;55.706;37.656;2023-04-20T11:33:51;100282.34;;;22.18;18.22
43814;BME280;29669;55.706;37.656;2023-04-20T11:36:20;100288.00;;;22.03;18.22
43814;BME280;29669;55.706;37.656;2023-04-20T11:38:49;100285.44;;;21.85;18.47
43814;BME280;29669;55.706;37.656;2023-04-20T11:41:17;100277.41;;;21.74;18.54
43814;BME280;29669;55.706;37.656;2023-04-20T11:43:45;100280.00;;;21.62;18.78
43814;BME280;29669;55.706;37.656;2023-04-20T11:46:14;100278.59;;;21.41;18.40
43814;BME280;29669;55.706;37.656;2023-04-20T11:48:42;100288.16;;;21.00;19.24
43814;BME280;29669;55.706;37.656;2023-04-20T11:51:10;100283.31;;;20.47;19.69
43814;BME280;29669;55.706;37.656;2023-04-20T11:53:37;100282.94;;;20.06;20.26
43814;BME280;29669;55.706;37.656;2023-04-20T11:56:06;100273.97;;;19.76;20.27
43814;BME280;29669;55.706;37.656;2023-04-20T11:58:34;100269.19;;;19.60;20.47
43814;BME280;29669;55.706;37.656;2023-04-20T12:01:03;100271.06;;;19.46;20.78
43814;BME280;29669;55.706;37.656;2023-04-20T12:03:32;100279.56;;;19.48;20.78
43814;BME280;29669;55.706;37.656;2023-04-20T12:06:00;100272.66;;;19.47;21.04
43814;BME280;29669;55.706;37.656;2023-04-20T12:08:28;100263.53;;;19.56;20.96
43814;BME280;29669;55.706;37.656;2023-04-20T12:10:56;100263.09;;;19.66;20.55
43814;BME280;29669;55.706;37.656;2023-04-20T12:13:24;100257.16;;;19.77;20.73
43814;BME280;29669;55.706;37.656;2023-04-20T12:15:52;100260.84;;;20.07;20.61
43814;BME280;29669;55.706;37.656;2023-04-20T12:18:20;100257.34;;;20.20;20.38
43814;BME280;29669;55.706;37.656;2023-04-20T12:20:48;100251.00;;;20.27;20.35
43814;BME280;29669;55.706;37.656;2023-04-20T12:23:16;100245.34;;;20.24;20.25
43814;BME280;29669;55.706;37.656;2023-04-20T12:25:44;100244.75;;;20.22;20.37
43814;BME280;29669;55.706;37.656;2023-04-20T12:28:11;100236.81;;;20.28;20.20
43814;BME280;29669;55.706;37.656;2023-04-20T12:30:39;100238.63;;;20.28;20.14
43814;BME280;29669;55.706;37.656;2023-04-20T12:33:07;100234.59;;;20.25;20.17
43814;BME280;29669;55.706;37.656;2023-04-20T12:35:35;100238.25;;;20.24;20.16
43814;BME280;29669;55.706;37.656;2023-04-20T12:38:05;100228.91;;;20.28;20.11
43814;BME280;29669;55.706;37.656;2023-04-20T12:40:34;100228.13;;;20.21;20.08
43814;BME280;29669;55.706;37.656;2023-04-20T12:43:01;100223.25;;;20.74;19.71
43814;BME280;29669;55.706;37.656;2023-04-20T12:45:30;100225.34;;;21.44;19.06
43814;BME280;29669;55.706;37.656;2023-04-20T12:47:58;100217.28;;;21.39;19.01
43814;BME280;29669;55.706;37.656;2023-04-20T12:50:27;100219.13;;;21.21;19.15
43814;BME280;29669;55.706;37.656;2023-04-20T12:52:54;100213.53;;;21.11;19.30
43814;BME280;29669;55.706;37.656;2023-04-20T12:55:25;100205.59;;;21.77;18.88
43814;BME280;29669;55.706;37.656;2023-04-20T12:57:52;100201.28;;;22.23;18.56
43814;BME280;29669;55.706;37.656;2023-04-20T13:00:20;100204.22;;;21.74;18.64
43814;BME280;29669;55.706;37.656;2023-04-20T13:02:48;100190.00;;;21.09;19.32
43814;BME280;29669;55.706;37.656;2023-04-20T13:05:16;100202.72;;;20.51;19.92
43814;BME280;29669;55.706;37.656;2023-04-20T13:07:44;100197.31;;;20.22;20.27
43814;BME280;29669;55.706;37.656;2023-04-20T13:10:12;100197.81;;;20.80;19.87
43814;BME280;29669;55.706;37.656;2023-04-20T13:12:40;100194.69;;;21.43;19.35
43814;BME280;29669;55.706;37.656;2023-04-20T13:15:08;100183.28;;;22.90;18.36
43814;BME280;29669;55.706;37.656;2023-04-20T13:17:37;100187.56;;;24.70;17.29
43814;BME280;29669;55.706;37.656;2023-04-20T13:20:05;100174.34;;;26.10;16.02
43814;BME280;29669;55.706;37.656;2023-04-20T13:22:34;100189.97;;;26.69;15.66
43814;BME280;29669;55.706;37.656;2023-04-20T13:25:09;100185.88;;;25.67;16.07
43814;BME280;29669;55.706;37.656;2023-04-20T13:27:38;100193.19;;;24.18;16.91
43814;BME280;29669;55.706;37.656;2023-04-20T13:30:06;100174.25;;;23.02;17.92
43814;BME280;29669;55.706;37.656;2023-04-20T13:32:35;100180.72;;;22.25;18.73
43814;BME280;29669;55.706;37.656;2023-04-20T13:35:05;100168.91;;;21.87;18.90